Time;durP1;ratioP1;P1;durP2;ratioP2;P2;SDS_P1;SDS_P2;PMS_P1;PMS_P2;Temp;Humidity;BMP_temperature;BMP_pressure;BME280_temperature;BME280_humidity;BME280_pressure;Samples;Min_cycle;Max_cycle;Signal;HPM_P1;HPM_P2
2023/04/24 00:02:10;;;;;;;1.37;0.70;;;11.30;1.00;;;;;;5031865;28;20175;-75
2023/04/24 00:04:40;;;;;;;2.40;0.70;;;11.30;99.90;;;;;;5031627;28;20188;-75
2023/04/24 00:07:06;;;;;;;1.07;0.70;;;11.30;1.00;;;;;;5031823;28;20715;-75
2023/04/24 00:09:32;;;;;;;2.00;0.90;;;11.30;1.00;;;;;;5030367;28;20682;-75
2023/04/24 00:11:58;;;;;;;1.40;0.80;;;11.30;1.00;;;;;;5030083;28;20184;-75
2023/04/24 00:14:23;;;;;;;2.37;0.80;;;11.30;1.00;;;;;;5031324;28;20620;-75
2023/04/24 00:16:49;;;;;;;1.20;0.80;;;11.30;1.00;;;;;;5031552;28;20165;-75
2023/04/24 00:19:14;;;;;;;2.10;1.10;;;11.20;1.00;;;;;;5031404;28;20164;-75
2023/04/24 00:21:41;;;;;;;0.60;0.60;;;11.20;1.00;;;;;;5030159;28;20187;-75
2023/04/24 00:24:08;;;;;;;1.00;0.90;;;11.20;1.00;;;;;;5030118;28;20241;-75
2023/04/24 00:26:34;;;;;;;2.97;1.10;;;11.20;1.00;;;;;;5031370;28;20172;-75
2023/04/24 00:29:00;;;;;;;1.40;1.30;;;11.10;1.00;;;;;;5031565;28;20660;-75
2023/04/24 00:31:25;;;;;;;0.70;0.70;;;11.10;1.00;;;;;;5031306;28;20172;-75
2023/04/24 00:33:51;;;;;;;3.67;1.17;;;11.10;1.00;;;;;;5031233;28;20194;-75
2023/04/24 00:36:18;;;;;;;1.97;1.00;;;11.10;1.00;;;;;;5031197;28;20651;-75
2023/04/24 00:38:44;;;;;;;3.00;1.07;;;11.00;1.00;;;;;;5031105;28;20736;-74
2023/04/24 00:41:10;;;;;;;1.73;1.00;;;11.00;1.00;;;;;;5031391;28;20347;-75
2023/04/24 00:43:35;;;;;;;2.50;1.10;;;11.00;1.00;;;;;;5031147;28;20172;-77
2023/04/24 00:46:01;;;;;;;2.17;1.17;;;10.90;1.00;;;;;;5029723;28;20267;-74
2023/04/24 00:48:27;;;;;;;1.37;0.80;;;10.90;1.00;;;;;;5029640;28;20172;-75
2023/04/24 00:50:53;;;;;;;2.67;1.10;;;10.90;1.00;;;;;;5029649;28;20172;-75
2023/04/24 00:53:19;;;;;;;1.57;1.17;;;10.80;22.70;;;;;;5029678;28;20175;-75
2023/04/24 00:55:45;;;;;;;4.17;1.50;;;10.80;24.20;;;;;;5030869;28;20695;-75
2023/04/24 00:58:11;;;;;;;1.67;1.20;;;10.70;17.80;;;;;;5030900;28;20168;-75
2023/04/24 01:00:36;;;;;;;3.10;2.00;;;10.70;54.20;;;;;;5029519;28;20190;-75
2023/04/24 01:03:04;;;;;;;3.00;2.67;;;10.70;1.00;;;;;;5029539;28;20200;-74
2023/04/24 01:05:30;;;;;;;3.30;2.67;;;10.60;1.00;;;;;;5030468;28;20253;-75
2023/04/24 01:07:56;;;;;;;4.67;2.67;;;10.60;1.00;;;;;;5029389;28;20593;-75
2023/04/24 01:10:24;;;;;;;3.87;2.40;;;10.60;1.00;;;;;;5029396;28;20261;-75
2023/04/24 01:12:50;;;;;;;3.90;2.30;;;10.50;1.00;;;;;;5030748;28;20180;-75
2023/04/24 01:15:15;;;;;;;2.80;2.47;;;10.40;1.00;;;;;;5030458;28;20204;-75
2023/04/24 01:17:41;;;;;;;6.10;2.17;;;10.40;1.00;;;;;;5030569;28;20255;-75
2023/04/24 01:20:08;;;;;;;2.33;2.03;;;10.40;24.60;;;;;;5030759;28;20169;-75
2023/04/24 01:22:34;;;;;;;2.53;2.33;;;10.30;65.70;;;;;;5030468;28;20164;-75
2023/04/24 01:25:00;;;;;;;3.57;2.13;;;10.20;90.00;;;;;;5030366;28;20192;-75
2023/04/24 01:27:25;;;;;;;3.20;2.70;;;10.30;99.90;;;;;;5029376;28;20183;-75
2023/04/24 01:29:51;;;;;;;3.50;2.50;;;10.20;99.90;;;;;;5030380;28;20180;-75
2023/04/24 01:32:18;;;;;;;3.37;2.50;;;10.20;99.90;;;;;;5030418;28;20305;-75
2023/04/24 01:34:45;;;;;;;3.53;2.53;;;10.10;99.90;;;;;;5030362;28;20204;-75
2023/04/24 01:37:10;;;;;;;4.67;2.90;;;10.10;99.90;;;;;;5030230;28;20518;-75
2023/04/24 01:39:36;;;;;;;5.23;3.10;;;10.10;99.90;;;;;;5030182;28;20172;-75
2023/04/24 01:42:05;;;;;;;4.47;2.33;;;10.10;99.90;;;;;;5030636;28;20180;-75
2023/04/24 01:44:30;;;;;;;5.10;2.90;;;10.00;99.90;;;;;;5030211;28;20217;-75
2023/04/24 01:46:56;;;;;;;2.20;1.93;;;10.00;99.90;;;;;;5028801;28;20205;-75
2023/04/24 01:49:22;;;;;;;3.50;2.23;;;10.00;99.90;;;;;;5030112;28;20168;-75
2023/04/24 01:51:48;;;;;;;4.17;2.90;;;10.00;99.90;;;;;;5028862;28;20176;-75
2023/04/24 01:54:13;;;;;;;5.00;3.20;;;10.00;99.90;;;;;;5029906;28;20204;-75
2023/04/24 01:56:43;;;;;;;5.90;3.50;;;9.90;99.90;;;;;;5028697;28;20177;-75
2023/04/24 01:59:12;;;;;;;6.80;3.63;;;9.90;99.90;;;;;;5029846;28;20630;-75
2023/04/24 02:01:38;;;;;;;4.60;3.17;;;9.90;99.90;;;;;;5028743;28;20180;-75
2023/04/24 02:04:05;;;;;;;5.40;3.50;;;9.90;99.90;;;;;;5030254;28;20267;-75
2023/04/24 02:06:31;;;;;;;6.87;3.87;;;9.90;99.90;;;;;;5029140;28;20291;-75
2023/04/24 02:08:58;;;;;;;4.37;3.50;;;9.90;99.90;;;;;;5028805;28;20652;-75
2023/04/24 02:11:23;;;;;;;9.50;3.93;;;9.90;99.90;;;;;;5029768;28;20523;-75
2023/04/24 02:13:50;;;;;;;8.83;4.57;;;9.90;99.90;;;;;;5029983;28;20192;-75
2023/04/24 02:16:15;;;;;;;8.10;4.23;;;9.90;99.90;;;;;;5029019;28;20189;-75
2023/04/24 02:18:41;;;;;;;7.17;5.10;;;9.90;99.90;;;;;;5029631;28;20494;-75
2023/04/24 02:21:06;;;;;;;9.33;5.30;;;9.90;99.90;;;;;;5028348;28;20176;-75
2023/04/24 02:23:32;;;;;;;9.10;4.87;;;9.80;99.90;;;;;;5028395;28;20180;-75
2023/04/24 02:25:57;;;;;;;7.20;4.93;;;9.80;99.90;;;;;;5029766;28;20207;-75
2023/04/24 02:28:23;;;;;;;8.50;5.53;;;9.80;99.90;;;;;;5028316;28;20236;-75
2023/04/24 02:30:49;;;;;;;9.70;5.77;;;9.80;99.90;;;;;;5029686;28;20539;-75
2023/04/24 02:33:15;;;;;;;10.83;5.90;;;9.80;99.90;;;;;;5029425;28;20169;-76
2023/04/24 02:35:40;;;;;;;9.03;5.20;;;9.80;99.90;;;;;;5029338;28;20295;-75
2023/04/24 02:38:06;;;;;;;9.83;6.30;;;9.80;99.90;;;;;;5029470;28;20175;-75
2023/04/24 02:40:32;;;;;;;10.83;6.10;;;9.80;99.90;;;;;;5029832;28;20173;-75
2023/04/24 02:42:57;;;;;;;7.83;6.20;;;9.80;99.90;;;;;;5029314;28;20255;-75
2023/04/24 02:45:23;;;;;;;12.83;7.43;;;9.80;99.90;;;;;;5029272;28;20294;-75
2023/04/24 02:47:48;;;;;;;8.90;6.40;;;9.80;99.90;;;;;;5029544;28;20313;-75
2023/04/24 02:50:14;;;;;;;10.93;6.50;;;9.80;99.90;;;;;;5029197;28;20221;-75
2023/04/24 02:52:39;;;;;;;10.80;6.63;;;9.80;99.90;;;;;;5029159;28;20701;-75
2023/04/24 02:55:05;;;;;;;9.30;6.40;;;9.80;99.90;;;;;;5027777;28;20212;-75
2023/04/24 02:57:31;;;;;;;13.57;6.13;;;9.80;99.90;;;;;;5029369;28;20670;-75
2023/04/24 02:59:56;;;;;;;10.77;6.73;;;9.80;99.90;;;;;;5029038;28;20267;-75
2023/04/24 03:02:22;;;;;;;10.60;7.57;;;9.80;99.90;;;;;;5027889;28;20173;-75
2023/04/24 03:04:48;;;;;;;9.97;7.00;;;9.80;99.90;;;;;;5029306;28;20188;-75
2023/04/24 03:07:14;;;;;;;10.33;6.70;;;9.80;99.90;;;;;;5029085;28;20172;-75
2023/04/24 03:09:40;;;;;;;12.97;7.43;;;9.80;99.90;;;;;;5028995;28;20197;-75
2023/04/24 03:12:05;;;;;;;12.10;7.67;;;9.80;99.90;;;;;;5028842;28;20231;-75
2023/04/24 03:14:31;;;;;;;10.40;6.67;;;9.80;99.90;;;;;;5027414;28;20726;-75
2023/04/24 03:16:57;;;;;;;17.10;7.50;;;9.80;99.90;;;;;;5027654;28;20182;-75
2023/04/24 03:19:22;;;;;;;14.67;7.80;;;9.80;99.90;;;;;;5029129;28;20168;-75
2023/04/24 03:21:48;;;;;;;12.17;7.83;;;9.80;99.90;;;;;;5028983;28;20248;-75
2023/04/24 03:24:14;;;;;;;11.47;7.37;;;9.80;99.90;;;;;;5028858;28;20259;-75
2023/04/24 03:26:39;;;;;;;14.40;8.03;;;9.80;99.90;;;;;;5028946;28;20177;-75
2023/04/24 03:29:05;;;;;;;13.43;7.67;;;9.90;99.90;;;;;;5029953;28;20273;-75
2023/04/24 03:31:30;;;;;;;11.63;7.60;;;9.90;99.90;;;;;;5032164;28;20524;-75
2023/04/24 03:33:56;;;;;;;9.93;7.07;;;9.90;99.90;;;;;;5032272;28;20196;-74
2023/04/24 03:36:21;;;;;;;11.23;7.40;;;9.90;99.90;;;;;;5030879;28;20192;-75
2023/04/24 03:38:47;;;;;;;14.03;7.60;;;9.90;99.90;;;;;;5032159;28;20164;-74
2023/04/24 03:41:12;;;;;;;16.10;8.00;;;9.90;99.90;;;;;;5032105;28;20628;-75
2023/04/24 03:43:39;;;;;;;10.77;7.33;;;9.90;99.90;;;;;;5031965;28;20184;-75
2023/04/24 03:46:04;;;;;;;14.93;7.13;;;9.80;99.90;;;;;;5031888;28;20188;-75
2023/04/24 03:48:30;;;;;;;12.13;7.37;;;9.90;99.90;;;;;;5030763;28;20547;-75
2023/04/24 03:50:55;;;;;;;12.87;7.53;;;9.90;99.90;;;;;;5032098;28;20168;-75
2023/04/24 03:53:21;;;;;;;9.37;6.60;;;9.90;99.90;;;;;;5031855;28;20172;-76
2023/04/24 03:55:47;;;;;;;12.73;7.10;;;9.90;99.90;;;;;;5031633;28;20287;-75
2023/04/24 03:58:14;;;;;;;14.03;7.30;;;9.90;99.90;;;;;;5032069;28;20260;-75
2023/04/24 04:00:40;;;;;;;12.10;7.93;;;9.90;99.90;;;;;;5031736;28;20188;-75
2023/04/24 04:03:05;;;;;;;10.30;7.20;;;9.90;99.90;;;;;;5030811;28;20205;-75
2023/04/24 04:05:31;;;;;;;10.33;6.60;;;9.90;99.90;;;;;;5030269;28;20204;-75
2023/04/24 04:07:57;;;;;;;12.90;7.47;;;9.90;99.90;;;;;;5031588;28;20179;-75
2023/04/24 04:10:22;;;;;;;8.63;6.90;;;9.90;99.90;;;;;;5031817;28;20636;-75
2023/04/24 04:12:48;;;;;;;9.13;7.00;;;9.90;99.90;;;;;;5031777;28;20199;-75
2023/04/24 04:15:13;;;;;;;12.60;6.90;;;9.90;99.90;;;;;;5031395;28;20232;-75
2023/04/24 04:17:39;;;;;;;9.17;6.80;;;9.90;99.90;;;;;;5031610;28;20229;-75
2023/04/24 04:20:11;;;;;;;19.23;7.33;;;9.90;99.90;;;;;;5031498;28;20172;-75
2023/04/24 04:22:37;;;;;;;9.93;6.50;;;9.90;99.90;;;;;;5031618;28;20164;-75
2023/04/24 04:25:04;;;;;;;10.20;6.40;;;9.90;99.90;;;;;;5031251;28;20195;-75
2023/04/24 04:27:31;;;;;;;11.10;7.20;;;9.90;99.90;;;;;;5029966;28;20253;-75
2023/04/24 04:29:59;;;;;;;11.80;6.77;;;9.90;99.90;;;;;;5031258;28;20255;-75
2023/04/24 04:32:24;;;;;;;8.80;6.67;;;9.90;99.90;;;;;;5031389;28;20194;-75
2023/04/24 04:34:53;;;;;;;10.87;7.47;;;9.90;99.90;;;;;;5031063;28;20283;-75
2023/04/24 04:37:18;;;;;;;13.67;6.60;;;9.90;99.90;;;;;;5031459;28;20168;-76
2023/04/24 04:39:44;;;;;;;10.00;6.83;;;9.90;99.90;;;;;;5030814;28;20199;-76
2023/04/24 04:42:10;;;;;;;8.67;6.40;;;9.90;99.90;;;;;;5031381;28;20173;-76
2023/04/24 04:44:36;;;;;;;9.80;6.50;;;9.90;99.90;;;;;;5031293;28;20204;-77
2023/04/24 04:47:05;;;;;;;8.10;6.57;;;9.90;99.90;;;;;;5031198;28;20173;-76
2023/04/24 04:49:31;;;;;;;13.90;6.13;;;9.90;99.90;;;;;;5029912;28;20225;-76
2023/04/24 04:51:57;;;;;;;10.13;7.00;;;9.90;99.90;;;;;;5031640;28;20168;-76
2023/04/24 04:54:22;;;;;;;10.27;6.10;;;9.80;99.90;;;;;;5030886;28;20791;-77
2023/04/24 04:56:50;;;;;;;7.57;6.47;;;9.90;99.90;;;;;;5029692;28;20688;-77
2023/04/24 04:59:16;;;;;;;10.97;6.30;;;9.80;99.90;;;;;;5031075;28;20172;-76
2023/04/24 05:01:41;;;;;;;8.00;5.37;;;9.80;99.90;;;;;;5031128;28;20181;-76
2023/04/24 05:04:07;;;;;;;8.30;5.67;;;9.90;99.90;;;;;;5030812;28;20188;-76
2023/04/24 05:06:32;;;;;;;9.53;6.20;;;9.80;99.90;;;;;;5030978;28;20245;-77
2023/04/24 05:08:58;;;;;;;8.40;6.07;;;9.80;99.90;;;;;;5030767;28;20258;-76
2023/04/24 05:11:23;;;;;;;8.60;5.50;;;9.80;99.90;;;;;;5030933;28;20648;-76
2023/04/24 05:13:49;;;;;;;8.70;6.10;;;9.80;99.90;;;;;;5031045;28;20177;-76
2023/04/24 05:16:14;;;;;;;8.97;5.70;;;9.80;99.90;;;;;;5031405;28;20196;-77
2023/04/24 05:18:40;;;;;;;8.13;5.60;;;9.80;99.90;;;;;;5029373;28;20168;-76
2023/04/24 05:21:06;;;;;;;10.17;6.50;;;9.70;99.90;;;;;;5029300;28;20176;-75
2023/04/24 05:23:31;;;;;;;11.23;5.93;;;9.70;99.90;;;;;;5030615;28;20165;-76
2023/04/24 05:25:57;;;;;;;10.07;6.33;;;9.70;99.90;;;;;;5030499;28;20275;-76
2023/04/24 05:28:22;;;;;;;7.13;6.30;;;9.60;99.90;;;;;;5030525;28;20176;-76
2023/04/24 05:30:48;;;;;;;7.03;5.73;;;9.60;99.90;;;;;;5030402;28;20640;-76
2023/04/24 05:33:14;;;;;;;11.17;6.53;;;9.60;99.90;;;;;;5030593;28;20562;-76
2023/04/24 05:35:45;;;;;;;9.73;7.37;;;9.50;99.90;;;;;;5030113;28;20256;-76
2023/04/24 05:38:11;;;;;;;9.73;5.97;;;9.50;99.90;;;;;;5030413;28;20164;-75
2023/04/24 05:40:37;;;;;;;8.97;6.30;;;9.50;99.90;;;;;;5030147;28;20164;-76
2023/04/24 05:43:03;;;;;;;8.00;6.33;;;9.50;99.90;;;;;;5030259;28;20172;-76
2023/04/24 05:45:28;;;;;;;8.00;6.57;;;9.50;99.90;;;;;;5030022;28;20196;-76
2023/04/24 05:47:54;;;;;;;9.40;6.00;;;9.40;99.90;;;;;;5028840;28;20172;-76
2023/04/24 05:50:20;;;;;;;8.90;6.03;;;9.50;99.90;;;;;;5028759;28;20206;-76
2023/04/24 05:52:45;;;;;;;7.57;5.60;;;9.50;99.90;;;;;;5027715;28;20555;-76
2023/04/24 05:55:11;;;;;;;6.20;5.60;;;9.50;99.90;;;;;;5029838;28;20200;-76
2023/04/24 05:57:36;;;;;;;9.13;5.87;;;9.50;99.90;;;;;;5029996;28;20176;-76
2023/04/24 06:00:04;;;;;;;6.83;4.87;;;9.50;99.90;;;;;;5029897;28;20175;-76
2023/04/24 06:02:32;;;;;;;6.20;5.23;;;9.50;99.90;;;;;;5028579;28;20707;-75
2023/04/24 06:04:59;;;;;;;8.63;6.13;;;9.50;99.90;;;;;;5029887;28;20587;-75
2023/04/24 06:07:26;;;;;;;7.57;6.03;;;9.50;99.90;;;;;;5030068;28;20222;-76
2023/04/24 06:09:52;;;;;;;8.40;5.17;;;9.50;99.90;;;;;;5028463;28;20263;-76
2023/04/24 06:12:17;;;;;;;6.40;5.27;;;9.40;99.90;;;;;;5029662;28;20270;-76
2023/04/24 06:14:43;;;;;;;5.73;5.03;;;9.50;99.90;;;;;;5029507;28;20782;-76
2023/04/24 06:17:08;;;;;;;8.87;4.97;;;9.60;99.90;;;;;;5029783;28;20248;-76
2023/04/24 06:19:34;;;;;;;7.27;5.20;;;9.50;99.90;;;;;;5029690;28;20659;-76
2023/04/24 06:21:59;;;;;;;6.57;5.10;;;9.50;99.90;;;;;;5028369;28;20173;-76
2023/04/24 06:24:28;;;;;;;5.70;4.90;;;9.50;99.90;;;;;;5028224;28;20623;-76
2023/04/24 06:26:54;;;;;;;9.20;5.40;;;9.50;99.90;;;;;;5028365;28;20263;-76
2023/04/24 06:29:20;;;;;;;6.63;5.40;;;9.50;99.90;;;;;;5029574;28;20196;-76
2023/04/24 06:31:45;;;;;;;7.83;4.70;;;9.50;99.90;;;;;;5029854;28;20172;-76
2023/04/24 06:34:11;;;;;;;8.33;4.77;;;9.50;99.90;;;;;;5028436;28;20306;-78
2023/04/24 06:36:37;;;;;;;7.67;4.57;;;9.40;99.90;;;;;;5029246;28;20192;-76
2023/04/24 06:39:02;;;;;;;6.40;5.37;;;9.40;99.90;;;;;;5029690;28;20173;-76
2023/04/24 06:41:29;;;;;;;7.30;4.33;;;9.40;99.90;;;;;;5028158;28;20173;-76
2023/04/24 06:43:54;;;;;;;6.57;4.60;;;9.40;99.90;;;;;;5029507;28;20200;-76
2023/04/24 06:46:23;;;;;;;5.57;4.20;;;9.40;99.90;;;;;;5029371;28;20323;-77
2023/04/24 06:48:49;;;;;;;5.77;3.70;;;9.40;99.90;;;;;;5029679;28;20173;-76
2023/04/24 06:51:15;;;;;;;4.73;3.53;;;9.30;99.90;;;;;;5027950;28;20563;-76
2023/04/24 06:53:40;;;;;;;4.83;3.50;;;9.30;99.90;;;;;;5027918;28;20169;-76
2023/04/24 06:56:06;;;;;;;5.00;3.30;;;9.30;99.90;;;;;;5027927;28;20302;-76
2023/04/24 06:58:32;;;;;;;3.83;3.07;;;9.20;99.90;;;;;;5029203;28;20164;-76
2023/04/24 07:00:57;;;;;;;4.00;3.33;;;9.20;99.90;;;;;;5029149;28;20169;-77
2023/04/24 07:03:23;;;;;;;4.80;3.20;;;9.20;99.90;;;;;;5030711;28;20674;-77
2023/04/24 07:05:49;;;;;;;4.60;3.37;;;9.30;99.90;;;;;;5032584;28;20188;-76
2023/04/24 07:08:16;;;;;;;4.00;2.90;;;9.30;99.90;;;;;;5031814;28;20187;-76
2023/04/24 07:10:42;;;;;;;4.00;2.70;;;9.20;99.90;;;;;;5031185;28;20268;-77
2023/04/24 07:13:08;;;;;;;4.20;2.80;;;9.20;99.90;;;;;;5032917;28;20619;-77
2023/04/24 07:15:34;;;;;;;3.63;2.50;;;9.30;99.90;;;;;;5029985;28;20298;-78
2023/04/24 07:17:59;;;;;;;4.23;2.43;;;9.20;99.90;;;;;;5032388;28;20173;-77
2023/04/24 07:20:25;;;;;;;4.10;2.50;;;9.20;99.90;;;;;;5032432;28;20169;-77
2023/04/24 07:22:51;;;;;;;3.30;2.33;;;9.20;99.90;;;;;;5031168;28;20195;-77
2023/04/24 07:25:17;;;;;;;2.43;1.70;;;9.10;99.90;;;;;;5032327;28;20206;-77
2023/04/24 07:27:43;;;;;;;2.83;1.63;;;9.10;99.90;;;;;;5032749;28;20547;-77
2023/04/24 07:30:09;;;;;;;2.13;1.10;;;9.00;99.90;;;;;;5032407;28;20207;-77
2023/04/24 07:32:35;;;;;;;3.67;1.00;;;9.00;99.90;;;;;;5032640;28;20175;-77
2023/04/24 07:35:00;;;;;;;0.73;0.60;;;8.90;99.90;;;;;;5030821;28;20208;-77
2023/04/24 07:37:26;;;;;;;2.27;0.70;;;8.90;99.90;;;;;;5032330;28;20542;-77
2023/04/24 07:39:51;;;;;;;0.50;0.50;;;8.80;99.90;;;;;;5032653;28;20168;-77
2023/04/24 07:42:17;;;;;;;0.80;0.60;;;8.80;99.90;;;;;;5030778;28;20171;-78
2023/04/24 07:44:42;;;;;;;2.30;0.50;;;8.60;99.90;;;;;;5032207;28;20192;-77
2023/04/24 07:47:08;;;;;;;0.50;0.50;;;8.60;99.90;;;;;;5030831;28;20183;-77
2023/04/24 07:49:34;;;;;;;1.50;0.60;;;8.60;99.90;;;;;;5030800;28;20180;-77
2023/04/24 07:52:02;;;;;;;0.57;0.50;;;8.50;99.90;;;;;;5031989;28;20175;-76
2023/04/24 07:54:28;;;;;;;0.47;0.47;;;8.50;99.90;;;;;;5030433;28;20208;-77
2023/04/24 07:56:54;;;;;;;1.23;0.70;;;8.50;99.90;;;;;;5031976;28;20647;-77
2023/04/24 07:59:19;;;;;;;0.47;0.47;;;8.50;99.90;;;;;;5030604;28;20244;-76
2023/04/24 08:01:45;;;;;;;1.37;0.50;;;8.40;99.90;;;;;;5031911;28;20666;-76
2023/04/24 08:04:11;;;;;;;0.70;0.60;;;8.30;99.90;;;;;;5031769;28;20226;-77
2023/04/24 08:06:36;;;;;;;2.67;0.80;;;8.40;99.90;;;;;;5031955;28;20664;-77
2023/04/24 08:09:02;;;;;;;1.77;0.80;;;8.40;99.90;;;;;;5030413;28;20184;-76
2023/04/24 08:11:28;;;;;;;0.60;0.60;;;8.40;99.90;;;;;;5031659;28;20221;-77
2023/04/24 08:13:54;;;;;;;0.70;0.70;;;8.40;99.90;;;;;;5029903;28;20170;-77
2023/04/24 08:16:20;;;;;;;1.50;0.90;;;8.40;99.90;;;;;;5031201;28;20209;-76
2023/04/24 08:18:45;;;;;;;0.53;0.53;;;8.40;99.90;;;;;;5030376;28;20213;-77
2023/04/24 08:21:12;;;;;;;1.10;0.90;;;8.40;99.90;;;;;;5030188;28;20176;-76
2023/04/24 08:23:38;;;;;;;1.13;0.90;;;8.50;99.90;;;;;;5030497;28;20180;-76
2023/04/24 08:26:04;;;;;;;1.70;1.03;;;8.50;99.90;;;;;;5030131;28;20292;-76
2023/04/24 08:28:29;;;;;;;0.73;0.63;;;8.40;99.90;;;;;;5030304;28;20226;-76
2023/04/24 08:30:55;;;;;;;2.50;0.90;;;8.40;99.90;;;;;;5030233;28;20639;-76
2023/04/24 08:33:22;;;;;;;1.40;1.00;;;8.50;99.90;;;;;;5031530;28;20249;-77
2023/04/24 08:35:48;;;;;;;2.93;0.87;;;8.50;99.90;;;;;;5031482;28;20246;-77
2023/04/24 08:38:13;;;;;;;0.83;0.70;;;8.50;99.90;;;;;;5030020;28;20172;-76
2023/04/24 08:40:39;;;;;;;0.50;0.50;;;8.50;99.90;;;;;;5031306;28;20663;-77
2023/04/24 08:43:05;;;;;;;0.57;0.57;;;8.60;99.90;;;;;;5031471;28;20256;-76
2023/04/24 08:45:32;;;;;;;0.80;0.60;;;8.60;99.90;;;;;;5029910;28;20570;-77
2023/04/24 08:47:59;;;;;;;1.00;0.60;;;8.70;99.90;;;;;;5030209;28;20221;-77
2023/04/24 08:50:25;;;;;;;2.20;0.93;;;8.60;99.90;;;;;;5029864;28;20181;-76
2023/04/24 08:52:53;;;;;;;1.53;0.80;;;8.70;99.90;;;;;;5031212;28;20184;-77
2023/04/24 08:55:20;;;;;;;1.13;0.80;;;8.60;99.90;;;;;;5029724;28;20287;-77
2023/04/24 08:57:51;;;;;;;1.70;0.70;;;8.70;99.90;;;;;;5029817;28;20305;-77
2023/04/24 09:00:18;;;;;;;1.27;0.80;;;8.70;99.90;;;;;;5031122;28;20627;-77
2023/04/24 09:02:45;;;;;;;2.53;1.00;;;8.80;99.90;;;;;;5029745;28;20700;-77
2023/04/24 09:05:11;;;;;;;2.50;1.40;;;8.70;99.90;;;;;;5031538;28;20634;-77
2023/04/24 09:07:40;;;;;;;3.67;2.60;;;8.70;99.90;;;;;;5030903;28;20164;-77
2023/04/24 09:10:07;;;;;;;14.30;8.50;;;8.70;99.90;;;;;;5030101;28;20304;-77
2023/04/24 09:12:34;;;;;;;12.77;9.10;;;8.70;99.90;;;;;;5030650;28;20192;-77
2023/04/24 09:15:01;;;;;;;12.87;8.40;;;8.80;99.90;;;;;;5029797;28;20302;-77
2023/04/24 09:17:28;;;;;;;10.90;7.50;;;8.80;99.90;;;;;;5030827;28;20652;-78
2023/04/24 09:19:53;;;;;;;12.20;9.73;;;8.80;99.90;;;;;;5030913;28;20690;-77
2023/04/24 09:22:20;;;;;;;11.13;8.20;;;8.80;99.90;;;;;;5030695;28;20168;-77
2023/04/24 09:24:45;;;;;;;16.60;9.87;;;8.80;99.90;;;;;;5030662;28;20645;-77
2023/04/24 09:27:12;;;;;;;7.53;6.40;;;8.80;99.90;;;;;;5030692;28;20168;-77
2023/04/24 09:29:38;;;;;;;14.23;6.97;;;8.80;99.90;;;;;;5030478;28;20199;-77
2023/04/24 09:32:21;;;;;;;18.97;8.90;;;8.80;99.90;;;;;;5030669;28;20644;-77
2023/04/24 09:34:47;;;;;;;7.67;5.97;;;8.80;99.90;;;;;;5030296;28;20295;-76
2023/04/24 09:37:28;;;;;;;9.70;6.30;;;8.80;99.90;;;;;;5029351;28;20176;-77
2023/04/24 09:40:09;;;;;;;16.97;9.77;;;8.70;99.90;;;;;;5030534;28;20159;-77
2023/04/24 09:42:35;;;;;;;6.83;4.47;;;8.70;99.90;;;;;;5029221;28;20644;-77
2023/04/24 09:45:02;;;;;;;9.50;6.00;;;8.70;99.90;;;;;;5030710;28;20188;-77
2023/04/24 09:47:27;;;;;;;8.40;5.80;;;8.60;99.90;;;;;;5029142;28;20181;-77
2023/04/24 09:49:57;;;;;;;10.73;6.20;;;8.70;99.90;;;;;;5029534;28;20531;-77
2023/04/24 09:52:25;;;;;;;10.83;7.13;;;8.60;99.90;;;;;;5030497;28;20207;-78
2023/04/24 09:54:54;;;;;;;18.80;7.93;;;8.60;99.90;;;;;;5029478;28;20532;-78
2023/04/24 09:57:19;;;;;;;10.80;7.47;;;8.60;99.90;;;;;;5031082;28;20737;-78
2023/04/24 09:59:46;;;;;;;10.57;5.63;;;8.60;99.90;;;;;;5029191;28;20215;-76
2023/04/24 10:02:19;;;;;;;11.77;5.10;;;8.60;99.90;;;;;;5028918;28;20173;-77
2023/04/24 10:04:56;;;;;;;9.43;5.27;;;8.70;99.90;;;;;;5030152;28;20196;-78
2023/04/24 10:07:21;;;;;;;12.13;7.07;;;8.70;99.90;;;;;;5030370;28;20167;-78
2023/04/24 10:09:47;;;;;;;18.47;9.03;;;8.70;99.90;;;;;;5030360;28;20173;-77
2023/04/24 10:12:14;;;;;;;18.47;8.73;;;8.80;99.90;;;;;;5030200;28;20203;-78
2023/04/24 10:14:40;;;;;;;18.40;8.63;;;8.80;99.90;;;;;;5028932;28;20294;-77
2023/04/24 10:17:06;;;;;;;21.60;11.93;;;8.90;99.90;;;;;;5029159;28;20204;-77
2023/04/24 10:19:33;;;;;;;21.50;11.07;;;8.90;99.90;;;;;;5030172;28;20168;-77
2023/04/24 10:22:00;;;;;;;22.50;11.43;;;8.90;99.90;;;;;;5028904;28;20175;-78
2023/04/24 10:24:26;;;;;;;21.37;8.53;;;8.90;99.90;;;;;;5029994;28;20675;-78
2023/04/24 10:26:52;;;;;;;18.70;8.83;;;8.90;99.90;;;;;;5030277;28;20203;-77
2023/04/24 10:29:19;;;;;;;14.13;6.67;;;9.00;99.90;;;;;;5028722;28;20185;-77
2023/04/24 10:31:46;;;;;;;19.00;9.63;;;9.00;99.90;;;;;;5028505;28;20183;-78
2023/04/24 10:34:12;;;;;;;23.20;9.50;;;9.00;99.90;;;;;;5030017;28;20232;-77
2023/04/24 10:36:43;;;;;;;20.27;7.43;;;9.00;99.90;;;;;;5029838;28;20605;-77
2023/04/24 10:39:12;;;;;;;21.40;8.90;;;9.00;99.90;;;;;;5028814;28;20508;-77
2023/04/24 10:41:38;;;;;;;22.77;9.23;;;9.00;99.90;;;;;;5028438;28;20173;-77
2023/04/24 10:44:08;;;;;;;15.17;7.07;;;9.00;99.90;;;;;;5029865;28;20232;-77
2023/04/24 10:46:34;;;;;;;17.67;6.97;;;9.10;99.90;;;;;;5028715;28;20232;-78
2023/04/24 10:49:06;;;;;;;24.93;8.40;;;9.10;99.90;;;;;;5029997;28;20583;-78
2023/04/24 10:51:50;;;;;;;17.73;6.53;;;9.20;99.90;;;;;;5029775;28;20628;-78
2023/04/24 10:54:36;;;;;;;19.17;6.07;;;9.10;99.90;;;;;;5028628;28;20199;-78
2023/04/24 10:57:22;;;;;;;13.10;4.60;;;9.20;99.90;;;;;;5028667;28;20175;-77
2023/04/24 11:00:16;;;;;;;13.10;4.93;;;9.10;99.90;;;;;;5027936;28;20591;-77
2023/04/24 11:02:48;;;;;;;8.30;3.60;;;9.10;99.90;;;;;;5032069;28;20176;-77
2023/04/24 11:05:18;;;;;;;11.53;4.03;;;9.20;99.90;;;;;;5029330;28;20188;-78
2023/04/24 11:08:16;;;;;;;8.93;3.73;;;9.30;99.90;;;;;;5029413;28;20173;-77
2023/04/24 11:10:46;;;;;;;11.53;4.70;;;9.30;99.90;;;;;;5028547;28;20172;-78
2023/04/24 11:13:22;;;;;;;8.93;4.07;;;9.40;99.90;;;;;;5028283;28;20240;-77
2023/04/24 11:16:13;;;;;;;8.60;3.83;;;9.40;99.90;;;;;;5028120;28;20345;-78
2023/04/24 11:18:45;;;;;;;11.27;4.17;;;9.40;99.90;;;;;;5028315;28;20191;-77
2023/04/24 11:21:17;;;;;;;13.03;4.17;;;9.40;99.90;;;;;;5028757;28;20164;-78
2023/04/24 11:23:44;;;;;;;11.50;3.70;;;9.30;99.90;;;;;;5028584;28;20314;-78
2023/04/24 11:26:17;;;;;;;9.93;3.67;;;9.40;99.90;;;;;;5028611;28;20241;-78
2023/04/24 11:28:50;;;;;;;14.87;3.60;;;9.40;99.90;;;;;;5033376;28;20168;-77
2023/04/24 11:31:35;;;;;;;8.83;3.20;;;9.40;99.90;;;;;;5033867;28;20207;-77
2023/04/24 11:34:13;;;;;;;8.33;3.27;;;9.40;99.90;;;;;;5033013;28;20191;-78
2023/04/24 11:36:43;;;;;;;11.50;3.73;;;9.50;99.90;;;;;;5035827;28;20227;-78
2023/04/24 11:39:09;;;;;;;9.53;3.23;;;9.50;99.90;;;;;;5031201;28;20187;-77
2023/04/24 11:41:35;;;;;;;11.97;3.73;;;9.60;99.90;;;;;;5030155;28;20242;-77
2023/04/24 11:44:03;;;;;;;12.87;3.63;;;9.60;99.90;;;;;;5029266;28;20173;-77
2023/04/24 11:46:30;;;;;;;12.33;4.30;;;9.70;99.90;;;;;;5031101;28;20241;-77
2023/04/24 11:48:56;;;;;;;7.07;3.67;;;9.80;99.90;;;;;;5029443;28;20195;-78
2023/04/24 11:51:25;;;;;;;8.83;2.87;;;10.00;99.90;;;;;;5031428;28;20180;-77
2023/04/24 11:53:51;;;;;;;7.13;3.37;;;10.10;99.90;;;;;;5030543;28;20595;-77
2023/04/24 11:56:25;;;;;;;8.87;2.80;;;10.10;99.90;;;;;;5031856;28;20208;-77
2023/04/24 11:58:54;;;;;;;8.00;3.03;;;10.10;99.90;;;;;;5032318;28;20209;-77
2023/04/24 12:01:20;;;;;;;8.43;2.63;;;10.10;99.90;;;;;;5031820;28;20173;-77
2023/04/24 12:03:51;;;;;;;7.53;2.30;;;10.10;99.90;;;;;;5031763;28;20173;-77
2023/04/24 12:06:16;;;;;;;5.07;2.33;;;10.10;99.90;;;;;;5031599;28;20193;-77
2023/04/24 12:08:46;;;;;;;9.03;2.70;;;10.10;99.90;;;;;;5030451;28;20184;-77
2023/04/24 12:11:15;;;;;;;7.10;2.60;;;10.10;99.90;;;;;;5031616;28;20583;-77
2023/04/24 12:13:41;;;;;;;4.73;2.10;;;10.10;99.90;;;;;;5032853;28;20611;-77
2023/04/24 12:16:07;;;;;;;7.53;2.10;;;10.10;99.90;;;;;;5032724;28;20295;-77
2023/04/24 12:18:32;;;;;;;8.30;2.60;;;10.00;99.90;;;;;;5032329;28;20169;-77
2023/04/24 12:21:17;;;;;;;6.10;2.20;;;10.00;99.90;;;;;;5030902;28;20187;-77
2023/04/24 12:23:45;;;;;;;6.03;2.87;;;10.00;99.90;;;;;;5032859;28;20172;-78
2023/04/24 12:26:11;;;;;;;8.13;3.30;;;9.90;99.90;;;;;;5030799;28;20294;-78
2023/04/24 12:28:38;;;;;;;10.77;3.87;;;9.90;99.90;;;;;;5030797;28;20611;-78
2023/04/24 12:31:04;;;;;;;8.77;3.73;;;9.90;99.90;;;;;;5031718;28;20187;-77
2023/04/24 12:33:34;;;;;;;9.10;4.20;;;10.00;99.90;;;;;;5030506;28;20184;-77
2023/04/24 12:36:00;;;;;;;9.37;4.80;;;10.00;99.90;;;;;;5031765;28;20289;-77
2023/04/24 12:38:29;;;;;;;9.80;5.00;;;10.10;99.90;;;;;;5030165;28;20674;-77
2023/04/24 12:41:19;;;;;;;16.20;5.13;;;10.20;99.90;;;;;;5031871;28;20168;-78
2023/04/24 12:43:55;;;;;;;11.43;4.57;;;10.20;99.90;;;;;;5030371;28;20169;-78
2023/04/24 12:46:20;;;;;;;6.67;2.93;;;10.30;99.90;;;;;;5030321;28;20520;-77
2023/04/24 12:48:46;;;;;;;9.87;2.40;;;10.30;99.90;;;;;;5030149;28;20176;-76
2023/04/24 12:51:11;;;;;;;7.83;2.13;;;10.30;99.90;;;;;;5031772;28;20179;-78
2023/04/24 12:53:37;;;;;;;7.47;2.00;;;10.20;99.90;;;;;;5031540;28;20172;-77